Time;durP1;ratioP1;P1;durP2;ratioP2;P2;SDS_P1;SDS_P2;PMS_P1;PMS_P2;Temp;Humidity;BMP_temperature;BMP_pressure;BME280_temperature;BME280_humidity;BME280_pressure;Samples;Min_cycle;Max_cycle;Signal;HPM_P1;HPM_P2
2022/02/28 00:01:22;;;;;;;11.73;5.40;;;;;;;7.02;45.14;102198.84;5016264;28;20045;-62
2022/02/28 00:03:54;;;;;;;10.05;5.47;;;;;;;6.99;45.52;102204.81;5015688;28;20050;-63
2022/02/28 00:06:23;;;;;;;12.23;5.60;;;;;;;6.93;45.46;102205.00;5004733;28;20042;-63
2022/02/28 00:08:50;;;;;;;12.48;5.15;;;;;;;6.94;45.32;102199.28;5016701;28;20042;-62
2022/02/28 00:11:18;;;;;;;15.05;6.38;;;;;;;6.87;46.14;102201.38;5017482;28;20064;-63
2022/02/28 00:13:45;;;;;;;15.57;5.70;;;;;;;6.65;46.87;102203.25;5015990;28;20538;-62
2022/02/28 00:16:12;;;;;;;13.00;5.72;;;;;;;6.88;46.67;102204.94;5017196;28;20054;-63
2022/02/28 00:18:40;;;;;;;13.38;5.75;;;;;;;6.80;46.61;102203.47;5016992;28;20049;-64
2022/02/28 00:21:07;;;;;;;11.90;6.00;;;;;;;6.79;46.46;102205.38;5016936;28;20532;-63
2022/02/28 00:23:35;;;;;;;16.55;6.47;;;;;;;6.92;46.29;102211.59;5010964;28;20057;-63
2022/02/28 00:26:03;;;;;;;13.20;6.25;;;;;;;6.90;46.40;102220.06;5017256;28;20045;-62
2022/02/28 00:28:33;;;;;;;12.63;6.20;;;;;;;6.98;46.54;102208.66;5017182;28;20050;-63
2022/02/28 00:31:00;;;;;;;16.27;6.18;;;;;;;6.95;46.18;102208.34;5017372;28;20046;-62
2022/02/28 00:33:28;;;;;;;11.55;5.85;;;;;;;6.81;46.57;102216.09;5011987;28;20449;-63
2022/02/28 00:35:55;;;;;;;11.77;6.65;;;;;;;6.78;47.14;102214.66;5012071;28;20053;-63
2022/02/28 00:38:24;;;;;;;12.88;6.30;;;;;;;6.64;46.99;102218.84;5017126;28;20069;-63
2022/02/28 00:40:53;;;;;;;;;;;;;;;6.35;47.96;102209.09;5015499;28;20057;-63
2022/02/28 00:43:20;;;;;;;12.93;6.53;;;;;;;6.49;47.92;102218.63;5005688;28;19951;-62
2022/02/28 00:45:47;;;;;;;13.50;5.80;;;;;;;6.53;48.12;102213.47;5016723;28;20062;-63
2022/02/28 00:48:15;;;;;;;13.80;6.88;;;;;;;6.41;48.50;102212.72;5004582;28;20050;-63
2022/02/28 00:50:42;;;;;;;11.20;6.38;;;;;;;6.20;49.14;102222.53;5013690;28;20037;-63
2022/02/28 00:53:10;;;;;;;15.13;7.25;;;;;;;6.31;48.50;102218.03;5015069;28;20050;-63
2022/02/28 00:55:37;;;;;;;11.23;6.10;;;;;;;6.22;49.00;102225.84;5016193;28;20054;-62
2022/02/28 00:58:07;;;;;;;13.43;6.05;;;;;;;6.39;48.59;102218.47;5017060;28;20829;-62
2022/02/28 01:00:35;;;;;;;15.80;6.97;;;;;;;6.45;48.53;102220.19;5007977;28;20414;-62
2022/02/28 01:03:02;;;;;;;17.67;6.47;;;;;;;6.29;49.05;102221.03;4993067;28;20053;-62
2022/02/28 01:05:31;;;;;;;13.15;6.72;;;;;;;6.55;48.86;102227.75;5016667;28;20057;-63
2022/02/28 01:07:58;;;;;;;15.00;6.70;;;;;;;6.47;48.79;102228.97;5016066;28;20053;-62
2022/02/28 01:10:25;;;;;;;10.45;6.20;;;;;;;6.52;48.62;102230.97;5015321;28;20050;-62
2022/02/28 01:12:54;;;;;;;14.02;6.78;;;;;;;6.57;48.63;102234.59;5016683;28;20069;-63
2022/02/28 01:15:21;;;;;;;12.93;6.13;;;;;;;6.57;48.92;102237.34;5016261;28;20060;-62
2022/02/28 01:17:50;;;;;;;18.92;6.82;;;;;;;6.36;49.16;102238.09;4998545;28;20386;-62
2022/02/28 01:20:18;;;;;;;13.30;6.90;;;;;;;6.40;49.36;102230.22;5016024;28;20054;-62
2022/02/28 01:22:45;;;;;;;14.85;7.30;;;;;;;6.39;49.23;102236.78;5010118;28;20061;-63
2022/02/28 01:25:13;;;;;;;9.82;5.32;;;;;;;6.25;49.66;102221.75;5016042;28;20053;-62
2022/02/28 01:27:40;;;;;;;14.50;6.60;;;;;;;6.15;50.08;102229.81;5015640;28;20157;-63
2022/02/28 01:30:08;;;;;;;14.05;6.20;;;;;;;6.22;49.66;102230.47;5014770;28;20061;-62
2022/02/28 01:32:36;;;;;;;12.43;6.25;;;;;;;6.14;49.66;102230.88;5014350;28;20050;-63
2022/02/28 01:35:06;;;;;;;12.45;6.10;;;;;;;6.15;49.68;102229.81;5004677;28;20057;-62
2022/02/28 01:37:33;;;;;;;12.48;6.45;;;;;;;6.11;49.90;102234.09;5015541;28;20054;-62
2022/02/28 01:40:02;;;;;;;11.52;6.20;;;;;;;6.13;49.88;102223.75;5007379;28;20397;-62
2022/02/28 01:42:29;;;;;;;13.07;6.15;;;;;;;5.86;50.53;102225.47;5011751;28;20065;-63
2022/02/28 01:44:57;;;;;;;11.70;5.90;;;;;;;5.99;50.65;102228.72;5006945;28;20050;-62
2022/02/28 01:47:24;;;;;;;14.45;6.30;;;;;;;5.97;50.58;102216.34;5025144;28;20054;-61
2022/02/28 01:49:51;;;;;;;11.02;5.53;;;;;;;5.95;50.69;102219.31;5014819;28;20054;-62
2022/02/28 01:52:19;;;;;;;11.35;5.82;;;;;;;5.96;50.51;102221.00;5002925;28;20053;-62
2022/02/28 01:54:46;;;;;;;13.00;6.30;;;;;;;5.76;50.86;102215.13;5013912;28;20057;-63
2022/02/28 01:57:14;;;;;;;15.07;6.35;;;;;;;5.88;50.52;102224.13;5012552;28;20061;-63
2022/02/28 01:59:41;;;;;;;13.57;6.38;;;;;;;5.71;51.06;102224.06;5014444;28;20409;-62
2022/02/28 02:02:09;;;;;;;17.20;6.65;;;;;;;6.20;50.04;102225.25;5013994;28;20058;-62
2022/02/28 02:04:36;;;;;;;13.50;6.07;;;;;;;6.05;50.24;102219.50;5010212;28;20053;-62
2022/02/28 02:07:04;;;;;;;12.70;5.60;;;;;;;5.91;50.48;102222.81;5005844;28;20049;-62
2022/02/28 02:09:33;;;;;;;11.52;5.88;;;;;;;5.90;50.68;102221.13;5015088;28;20068;-62
2022/02/28 02:12:01;;;;;;;12.93;6.13;;;;;;;5.95;50.36;102218.50;5012893;28;20064;-62
2022/02/28 02:14:32;;;;;;;13.15;6.47;;;;;;;5.95;50.09;102219.31;5013735;28;20293;-62
2022/02/28 02:17:00;;;;;;;12.55;6.10;;;;;;;5.85;50.31;102213.69;5013779;28;20053;-62
2022/02/28 02:19:27;;;;;;;11.23;5.97;;;;;;;5.77;50.66;102222.22;5009958;28;20058;-65
2022/02/28 02:21:54;;;;;;;11.50;5.80;;;;;;;5.70;50.97;102206.00;5024324;28;20061;-62
2022/02/28 02:24:21;;;;;;;13.95;5.57;;;;;;;5.96;50.64;102214.69;5013098;28;20050;-62
2022/02/28 02:26:49;;;;;;;12.18;5.90;;;;;;;5.95;50.29;102213.84;5014087;28;20050;-62
2022/02/28 02:29:16;;;;;;;10.10;5.50;;;;;;;5.56;51.31;102215.56;5013309;28;20054;-62
2022/02/28 02:31:43;;;;;;;13.70;5.93;;;;;;;5.50;51.35;102208.34;5010238;28;20054;-63
2022/02/28 02:34:11;;;;;;;11.18;5.88;;;;;;;5.67;50.74;102205.66;5001098;28;20049;-62
2022/02/28 02:36:42;;;;;;;11.15;6.18;;;;;;;5.55;51.59;102210.34;5008886;28;20406;-62
2022/02/28 02:39:12;;;;;;;15.35;6.40;;;;;;;5.53;51.52;102201.53;5022251;28;20054;-63
2022/02/28 02:41:40;;;;;;;10.30;5.72;;;;;;;5.53;51.49;102207.84;5014170;28;20042;-62
2022/02/28 02:44:07;;;;;;;11.18;5.90;;;;;;;5.48;51.40;102206.91;5021964;28;20046;-62
2022/02/28 02:46:44;;;;;;;9.50;5.55;;;;;;;5.50;51.25;102208.34;5012359;28;20053;-61
2022/02/28 02:49:19;;;;;;;10.35;6.32;;;;;;;5.54;51.78;102206.75;5010854;28;20054;-62
2022/02/28 02:51:47;;;;;;;11.90;5.68;;;;;;;5.52;51.93;102202.63;5011205;28;20061;-62
2022/02/28 02:54:18;;;;;;;10.07;5.28;;;;;;;5.50;51.72;102210.25;5011790;28;20050;-63
2022/02/28 02:56:46;;;;;;;11.43;5.95;;;;;;;5.42;51.31;102208.72;5007530;28;20057;-62
2022/02/28 02:59:13;;;;;;;11.32;5.80;;;;;;;5.58;51.42;102216.16;5013511;28;20046;-63
2022/02/28 03:01:41;;;;;;;12.98;5.75;;;;;;;5.56;51.27;102212.00;5014828;28;20050;-62
2022/02/28 03:04:08;;;;;;;11.40;5.35;;;;;;;5.66;51.54;102220.41;5014386;28;20053;-61
2022/02/28 03:06:36;;;;;;;14.43;6.10;;;;;;;5.62;50.92;102211.84;5013885;28;20056;-63
2022/02/28 03:09:05;;;;;;;11.90;5.30;;;;;;;5.69;51.04;102211.72;5009753;28;20046;-65
2022/02/28 03:11:32;;;;;;;10.07;5.47;;;;;;;5.71;50.63;102215.03;5014844;28;20048;-62
2022/02/28 03:14:00;;;;;;;11.20;6.32;;;;;;;5.50;51.61;102211.09;5016876;28;20065;-62
2022/02/28 03:16:27;;;;;;;11.90;5.60;;;;;;;5.63;51.57;102216.25;5004237;28;20061;-62
2022/02/28 03:18:55;;;;;;;11.95;5.55;;;;;;;5.51;51.13;102209.16;5016915;28;20682;-63
2022/02/28 03:21:25;;;;;;;13.25;5.60;;;;;;;4.95;52.65;102217.28;4991562;28;20054;-62
2022/02/28 03:23:52;;;;;;;11.48;5.63;;;;;;;4.99;52.66;102211.09;4998714;28;20054;-62
2022/02/28 03:26:20;;;;;;;12.70;6.10;;;;;;;4.86;53.13;102218.72;4986768;28;20054;-62
2022/02/28 03:28:48;;;;;;;12.13;5.63;;;;;;;4.90;53.16;102209.78;5014924;28;20049;-61
2022/02/28 03:31:17;;;;;;;10.27;5.40;;;;;;;5.33;52.28;102203.91;5018389;28;20050;-66
2022/02/28 03:33:44;;;;;;;15.13;5.95;;;;;;;5.40;52.04;102207.31;5017459;28;20400;-64
2022/02/28 03:36:13;;;;;;;10.45;5.43;;;;;;;5.31;51.59;102209.59;5018288;28;20552;-62
2022/02/28 03:38:45;;;;;;;12.10;5.22;;;;;;;5.12;52.20;102207.28;5015035;28;20046;-63
2022/02/28 03:41:13;;;;;;;10.65;5.57;;;;;;;5.01;52.80;102206.22;5016416;28;20049;-63
2022/02/28 03:43:41;;;;;;;9.32;5.47;;;;;;;5.44;52.09;102208.50;5016360;28;20049;-63
2022/02/28 03:46:14;;;;;;;16.02;6.38;;;;;;;5.38;51.84;102204.84;5005828;28;20065;-62
2022/02/28 03:49:10;;;;;;;11.75;6.20;;;;;;;5.34;52.16;102197.34;5015174;28;20058;-63
2022/02/28 03:51:58;;;;;;;17.33;6.32;;;;;;;5.35;52.21;102197.09;5015570;28;20477;-62
2022/02/28 03:54:45;;;;;;;13.00;6.22;;;;;;;5.32;52.55;102194.03;5010565;28;20062;-62
2022/02/28 03:57:13;;;;;;;13.15;6.25;;;;;;;5.39;52.45;102186.50;5016133;28;20057;-63
2022/02/28 03:59:43;;;;;;;;;;;;;;;5.27;52.91;102191.19;5029870;28;20060;-64
2022/02/28 04:02:10;;;;;;;13.68;7.00;;;;;;;5.17;53.23;102194.56;5016074;28;20391;-62
2022/02/28 04:04:43;;;;;;;13.77;7.05;;;;;;;4.98;53.89;102190.34;5015278;28;20045;-63
2022/02/28 04:07:11;;;;;;;14.93;6.93;;;;;;;5.13;53.75;102193.38;5011250;28;20046;-63
2022/02/28 04:09:40;;;;;;;14.52;7.20;;;;;;;5.36;53.11;102190.59;5000086;28;20053;-62
2022/02/28 04:12:09;;;;;;;12.75;6.80;;;;;;;5.11;53.95;102197.44;5000008;28;20045;-63
2022/02/28 04:14:37;;;;;;;13.18;7.18;;;;;;;4.93;54.10;102198.41;5017052;28;20053;-63
2022/02/28 04:17:04;;;;;;;12.43;6.85;;;;;;;4.69;54.89;102201.41;5016012;28;20532;-64
2022/02/28 04:19:41;;;;;;;13.25;7.00;;;;;;;4.53;55.59;102203.78;5015192;28;20050;-63
2022/02/28 04:22:08;;;;;;;13.18;7.60;;;;;;;4.44;55.95;102201.66;5013685;28;20058;-64
2022/02/28 04:24:43;;;;;;;12.90;6.82;;;;;;;4.14;56.92;102209.94;5030676;28;20062;-63
2022/02/28 04:27:11;;;;;;;12.60;7.13;;;;;;;4.35;56.64;102214.81;4999233;28;20046;-63
2022/02/28 04:29:40;;;;;;;13.90;7.18;;;;;;;4.35;56.33;102216.69;5014478;28;20046;-64
2022/02/28 04:32:13;;;;;;;16.42;6.97;;;;;;;4.26;56.38;102212.66;5015632;28;20366;-63
2022/02/28 04:34:48;;;;;;;13.70;6.70;;;;;;;4.19;56.67;102217.38;5014228;28;20050;-64
2022/02/28 04:37:15;;;;;;;15.02;7.70;;;;;;;4.23;56.72;102219.44;5015433;28;20066;-63
2022/02/28 04:39:42;;;;;;;17.45;7.13;;;;;;;4.48;56.03;102211.03;5015215;28;20057;-63
2022/02/28 04:42:10;;;;;;;14.77;6.88;;;;;;;4.32;56.26;102214.47;5015730;28;20057;-63
2022/02/28 04:44:38;;;;;;;15.38;6.80;;;;;;;4.51;55.92;102216.84;5008900;28;20053;-63
2022/02/28 04:47:06;;;;;;;12.30;6.97;;;;;;;4.59;55.74;102216.47;5015594;28;20057;-63
2022/02/28 04:49:46;;;;;;;10.95;6.63;;;;;;;4.46;56.19;102216.69;5024845;28;20058;-64
2022/02/28 04:52:14;;;;;;;14.05;6.97;;;;;;;4.48;56.25;102222.75;5026230;28;20049;-64
2022/02/28 04:54:42;;;;;;;13.45;6.75;;;;;;;4.48;55.86;102216.50;5013483;28;20543;-62
2022/02/28 04:57:09;;;;;;;13.38;7.13;;;;;;;4.34;56.11;102218.59;4988251;28;20057;-62
2022/02/28 04:59:36;;;;;;;12.52;7.45;;;;;;;4.64;55.40;102220.41;5008396;28;20050;-62
2022/02/28 05:02:04;;;;;;;14.65;6.95;;;;;;;4.49;55.65;102223.59;5015217;28;20488;-62
2022/02/28 05:04:55;;;;;;;14.88;6.88;;;;;;;4.36;55.88;102223.81;5009960;28;20062;-64
2022/02/28 05:07:22;;;;;;;13.02;6.75;;;;;;;4.28;56.29;102227.72;5001998;28;20541;-62
2022/02/28 05:09:50;;;;;;;16.23;7.20;;;;;;;4.57;55.79;102229.53;5014466;28;20627;-62
2022/02/28 05:12:17;;;;;;;13.73;6.53;;;;;;;4.40;55.84;102236.75;5012571;28;20046;-62
2022/02/28 05:14:45;;;;;;;16.40;6.82;;;;;;;4.36;55.80;102235.56;5023541;28;20065;-63
2022/02/28 05:17:13;;;;;;;12.88;7.13;;;;;;;4.31;56.34;102243.63;5003941;28;20049;-64
2022/02/28 05:19:42;;;;;;;13.50;7.22;;;;;;;4.28;56.13;102238.63;4988813;28;20054;-64
2022/02/28 05:22:10;;;;;;;11.75;7.13;;;;;;;4.32;55.78;102245.25;5026224;28;20054;-64
2022/02/28 05:24:45;;;;;;;10.80;6.28;;;;;;;4.44;55.54;102235.22;4994662;28;20058;-64
2022/02/28 05:27:12;;;;;;;12.07;6.40;;;;;;;4.52;55.04;102234.03;5014860;28;20053;-63
2022/02/28 05:29:40;;;;;;;13.20;6.93;;;;;;;4.33;55.41;102236.03;4998007;28;20065;-65
2022/02/28 05:32:09;;;;;;;13.63;6.57;;;;;;;4.25;55.52;102244.53;5029551;28;20057;-63
2022/02/28 05:34:39;;;;;;;12.73;6.72;;;;;;;4.22;55.56;102236.84;5015484;28;20042;-64
2022/02/28 05:37:07;;;;;;;12.88;6.45;;;;;;;4.14;56.04;102231.72;5014075;28;20058;-63
2022/02/28 05:40:05;;;;;;;13.15;6.40;;;;;;;4.28;55.47;102244.09;5005279;28;20057;-63
2022/02/28 05:42:36;;;;;;;12.52;6.60;;;;;;;4.68;54.76;102237.94;4998911;28;20054;-64
2022/02/28 05:45:07;;;;;;;14.50;6.57;;;;;;;4.20;55.30;102244.41;5020830;28;20061;-64
2022/02/28 05:47:35;;;;;;;12.13;6.78;;;;;;;4.02;56.16;102246.41;5009096;28;20053;-64
2022/02/28 05:50:04;;;;;;;14.07;6.68;;;;;;;4.00;56.52;102249.34;5009926;28;20073;-63
2022/02/28 05:52:31;;;;;;;20.17;6.95;;;;;;;4.22;56.34;102258.66;5014116;28;20061;-62
2022/02/28 05:54:58;;;;;;;18.83;6.82;;;;;;;3.94;56.72;102257.66;5006516;28;20057;-63
2022/02/28 05:57:25;;;;;;;13.13;6.88;;;;;;;4.00;56.66;102264.88;5014610;28;20053;-64
2022/02/28 05:59:53;;;;;;;12.15;6.25;;;;;;;4.34;56.00;102264.16;5015019;28;20408;-63
2022/02/28 06:02:20;;;;;;;12.52;6.13;;;;;;;4.43;55.65;102269.00;5015194;28;20045;-62
2022/02/28 06:04:47;;;;;;;12.52;6.72;;;;;;;4.58;55.32;102274.03;5011200;28;20049;-61
2022/02/28 06:07:14;;;;;;;12.48;6.38;;;;;;;4.65;54.71;102271.16;5013881;28;20050;-62
2022/02/28 06:09:42;;;;;;;13.57;7.38;;;;;;;4.62;54.69;102275.19;5013531;28;20049;-62
2022/02/28 06:12:10;;;;;;;13.93;6.68;;;;;;;4.75;54.61;102271.41;5013238;28;20060;-63
2022/02/28 06:14:37;;;;;;;14.93;7.20;;;;;;;4.45;55.45;102269.63;5015021;28;20054;-63
2022/02/28 06:17:04;;;;;;;12.27;6.78;;;;;;;4.65;55.39;102268.44;5014922;28;20048;-62
2022/02/28 06:19:32;;;;;;;12.55;7.20;;;;;;;4.42;55.43;102270.09;5015322;28;20054;-62
2022/02/28 06:21:59;;;;;;;14.68;7.13;;;;;;;4.35;55.40;102268.53;5014034;28;20041;-62
2022/02/28 06:24:26;;;;;;;12.10;6.78;;;;;;;4.28;55.63;102265.06;5011491;28;20054;-61
2022/02/28 06:26:53;;;;;;;12.55;6.70;;;;;;;4.28;56.00;102265.06;5013039;28;20037;-62
2022/02/28 06:29:21;;;;;;;17.73;7.28;;;;;;;4.22;55.92;102261.38;5015219;28;20054;-62
2022/02/28 06:31:48;;;;;;;14.93;7.32;;;;;;;4.15;56.11;102259.84;5012520;28;20057;-62
2022/02/28 06:34:16;;;;;;;18.38;7.53;;;;;;;4.39;55.63;102269.72;5014020;28;20061;-62
2022/02/28 06:36:43;;;;;;;14.10;7.13;;;;;;;4.50;55.26;102272.47;5013947;28;20402;-63
2022/02/28 06:39:10;;;;;;;12.15;6.82;;;;;;;4.46;55.04;102262.28;5014457;28;20506;-64
2022/02/28 06:41:38;;;;;;;14.15;6.90;;;;;;;4.22;55.62;102272.28;5015136;28;20064;-63
2022/02/28 06:44:05;;;;;;;16.35;6.88;;;;;;;4.10;56.26;102276.88;5005067;28;20088;-63
2022/02/28 06:46:34;;;;;;;15.00;7.05;;;;;;;4.16;56.21;102283.31;5019045;28;20057;-64
2022/02/28 06:49:01;;;;;;;13.88;7.20;;;;;;;4.25;55.68;102281.91;4988248;28;20407;-64
2022/02/28 06:51:28;;;;;;;18.23;6.68;;;;;;;4.49;55.16;102275.44;5013681;28;20054;-64
2022/02/28 06:53:56;;;;;;;17.48;7.32;;;;;;;4.46;55.02;102279.44;5018870;28;20431;-64
2022/02/28 06:56:23;;;;;;;12.23;7.05;;;;;;;4.35;55.22;102272.09;5007487;28;20054;-64
2022/02/28 06:58:50;;;;;;;18.35;6.95;;;;;;;4.17;55.45;102277.63;5017640;28;20053;-63
2022/02/28 07:01:17;;;;;;;13.60;6.53;;;;;;;4.21;55.67;102277.97;5000478;28;20057;-63
2022/02/28 07:03:51;;;;;;;15.52;6.38;;;;;;;4.24;56.05;102280.22;5017407;28;20053;-63
2022/02/28 07:06:22;;;;;;;12.05;6.90;;;;;;;4.12;56.08;102276.66;5006939;28;20493;-64
2022/02/28 07:08:49;;;;;;;14.88;7.18;;;;;;;4.14;56.16;102286.28;5002317;28;20061;-63
2022/02/28 07:11:19;;;;;;;20.95;8.40;;;;;;;4.35;55.15;102287.63;5033838;28;20053;-62
2022/02/28 07:13:46;;;;;;;17.30;7.88;;;;;;;4.32;55.30;102277.19;5038159;28;20519;-65
2022/02/28 07:16:17;;;;;;;12.82;7.38;;;;;;;4.07;56.23;102271.91;5031331;28;20053;-64
2022/02/28 07:18:44;;;;;;;12.60;6.82;;;;;;;4.22;55.66;102279.66;5035461;28;20607;-64
2022/02/28 07:21:12;;;;;;;15.43;7.35;;;;;;;4.08;55.63;102281.72;5016412;28;20045;-63
2022/02/28 07:23:39;;;;;;;18.92;8.07;;;;;;;4.08;56.15;102289.09;5018842;28;20050;-64
2022/02/28 07:26:06;;;;;;;13.25;7.22;;;;;;;4.28;55.67;102287.72;5023373;28;20077;-64
2022/02/28 07:28:34;;;;;;;14.65;7.00;;;;;;;4.52;55.13;102288.59;5036573;28;20049;-64
2022/02/28 07:31:21;;;;;;;16.70;7.45;;;;;;;4.29;55.45;102289.38;5024948;28;20149;-65
2022/02/28 07:33:49;;;;;;;14.70;7.93;;;;;;;4.39;55.75;102295.09;5025413;28;20046;-64
2022/02/28 07:36:16;;;;;;;18.30;6.93;;;;;;;4.14;55.98;102301.78;5010564;28;20054;-63
2022/02/28 07:38:43;;;;;;;16.75;7.03;;;;;;;4.07;56.69;102311.97;5000654;28;20046;-64
2022/02/28 07:41:11;;;;;;;14.20;6.97;;;;;;;4.16;56.10;102305.13;5019047;28;20045;-64
2022/02/28 07:43:38;;;;;;;16.90;8.07;;;;;;;4.50;55.90;102316.13;4999930;28;20053;-63
2022/02/28 07:46:05;;;;;;;17.98;7.57;;;;;;;4.82;55.29;102313.91;5019696;28;20053;-64
2022/02/28 07:48:33;;;;;;;18.48;8.13;;;;;;;4.96;55.56;102312.59;5017585;28;20042;-63
2022/02/28 07:51:00;;;;;;;18.80;7.40;;;;;;;5.05;55.00;102321.28;5014301;28;20102;-64
2022/02/28 07:53:27;;;;;;;17.95;7.78;;;;;;;5.32;54.58;102315.06;5027052;28;20062;-64
2022/02/28 07:55:54;;;;;;;18.52;7.65;;;;;;;5.44;56.28;102312.34;5025019;28;20053;-64
2022/02/28 07:58:22;;;;;;;16.95;7.90;;;;;;;5.63;55.48;102319.28;5030335;28;20056;-63
2022/02/28 08:00:49;;;;;;;25.52;8.20;;;;;;;5.29;53.85;102311.97;5008674;28;20062;-63
2022/02/28 08:03:16;;;;;;;14.80;7.55;;;;;;;5.33;53.40;102315.91;5010371;28;20061;-63
2022/02/28 08:05:47;;;;;;;14.70;8.00;;;;;;;5.50;53.92;102309.47;5017437;28;20081;-66
2022/02/28 08:08:15;;;;;;;15.85;7.75;;;;;;;5.36;54.40;102309.94;5028931;28;20053;-64
2022/02/28 08:10:42;;;;;;;16.27;7.50;;;;;;;4.89;54.08;102308.31;5026963;28;20064;-63
2022/02/28 08:13:11;;;;;;;22.52;7.80;;;;;;;4.85;53.58;102297.03;5030096;28;20072;-64
2022/02/28 08:15:39;;;;;;;16.42;8.23;;;;;;;4.70;53.68;102290.41;5019865;28;20744;-64
2022/02/28 08:18:09;;;;;;;17.10;7.93;;;;;;;4.53;54.34;102291.09;5022747;28;20049;-64
2022/02/28 08:20:36;;;;;;;20.67;8.05;;;;;;;4.61;55.71;102289.91;5024148;28;20068;-64
2022/02/28 08:23:04;;;;;;;19.98;8.93;;;;;;;4.74;55.35;102299.78;5020429;28;20052;-64
2022/02/28 08:25:31;;;;;;;13.65;7.90;;;;;;;4.55;55.26;102296.31;5021947;28;20062;-64
2022/02/28 08:27:59;;;;;;;18.77;9.25;;;;;;;4.57;54.72;102289.56;5017653;28;20050;-64
2022/02/28 08:30:26;;;;;;;14.63;8.05;;;;;;;4.91;54.12;102282.47;5015690;28;20057;-65
2022/02/28 08:32:54;;;;;;;14.48;8.40;;;;;;;4.80;54.94;102296.09;5025864;28;20053;-64
2022/02/28 08:35:21;;;;;;;18.30;7.82;;;;;;;5.09;54.62;102292.44;5021780;28;20060;-63
2022/02/28 08:37:49;;;;;;;15.45;8.38;;;;;;;5.15;53.27;102289.56;5020578;28;20631;-64
2022/02/28 08:40:16;;;;;;;15.77;7.43;;;;;;;5.29;53.24;102284.66;5016990;28;20050;-64
2022/02/28 08:42:43;;;;;;;15.43;8.10;;;;;;;5.23;53.81;102291.91;5029643;28;20045;-64
2022/02/28 08:45:11;;;;;;;17.63;8.15;;;;;;;5.35;53.52;102290.00;4991608;28;20567;-63
2022/02/28 08:47:38;;;;;;;15.80;8.23;;;;;;;5.37;52.05;102298.78;5008399;28;20053;-64
2022/02/28 08:50:07;;;;;;;14.32;8.35;;;;;;;5.50;51.34;102290.34;5032720;28;20511;-63
2022/02/28 08:52:35;;;;;;;15.13;8.43;;;;;;;5.76;50.99;102275.25;5014755;28;20050;-64
2022/02/28 08:55:03;;;;;;;20.10;9.18;;;;;;;5.81;51.47;102289.03;5029540;28;20061;-65
2022/02/28 08:57:31;;;;;;;18.33;8.82;;;;;;;5.93;50.62;102289.84;5029048;28;20057;-64
2022/02/28 08:59:58;;;;;;;19.75;8.68;;;;;;;6.07;50.15;102290.38;5028191;28;20037;-65
2022/02/28 09:02:25;;;;;;;18.17;8.23;;;;;;;6.35;50.09;102284.88;5025872;28;20078;-65
2022/02/28 09:04:53;;;;;;;16.10;8.95;;;;;;;6.50;49.47;102288.69;5033190;28;20053;-65
2022/02/28 09:07:23;;;;;;;;;;;;;;;6.31;49.44;102289.19;5034931;28;20076;-64
2022/02/28 09:09:50;;;;;;;21.67;9.05;;;;;;;6.24;48.86;102277.56;5023263;28;19928;-64
2022/02/28 09:12:18;;;;;;;23.58;8.77;;;;;;;6.31;49.83;102272.78;5028303;28;20056;-65
2022/02/28 09:14:45;;;;;;;17.25;8.65;;;;;;;5.98;49.85;102284.47;5021350;28;20042;-64
2022/02/28 09:17:12;;;;;;;17.50;8.82;;;;;;;5.78;49.31;102291.41;5015811;28;20046;-64
2022/02/28 09:19:40;;;;;;;20.85;8.93;;;;;;;6.16;49.58;102292.47;5027806;28;20049;-64
2022/02/28 09:22:09;;;;;;;14.43;8.70;;;;;;;6.31;49.24;102303.69;5013504;28;20539;-65
2022/02/28 09:24:37;;;;;;;16.45;8.93;;;;;;;6.23;48.44;102298.63;5010644;28;20046;-65
2022/02/28 09:27:04;;;;;;;20.33;8.48;;;;;;;6.49;48.02;102300.72;5009540;28;20054;-65
2022/02/28 09:29:32;;;;;;;15.10;8.38;;;;;;;6.33;49.53;102296.06;5029413;28;20049;-65
2022/02/28 09:31:59;;;;;;;17.35;8.82;;;;;;;6.25;48.05;102307.41;5030508;28;20042;-65
2022/02/28 09:34:27;;;;;;;16.88;8.57;;;;;;;6.02;48.70;102303.94;5022069;28;20054;-66
2022/02/28 09:36:55;;;;;;;20.08;9.23;;;;;;;6.24;49.44;102308.47;5009364;28;20046;-65
2022/02/28 09:39:22;;;;;;;21.70;9.32;;;;;;;6.52;49.14;102316.66;5012187;28;20553;-66
2022/02/28 09:42:08;;;;;;;17.77;8.82;;;;;;;7.21;48.09;102325.41;5008045;28;20050;-63
2022/02/28 09:45:08;;;;;;;14.27;8.73;;;;;;;6.71;47.81;102326.28;5009615;28;20073;-65
2022/02/28 09:48:02;;;;;;;21.33;9.43;;;;;;;6.85;47.80;102318.59;5000899;28;20057;-65
2022/02/28 09:50:29;;;;;;;15.23;8.82;;;;;;;7.16;47.26;102328.94;5019131;28;20418;-65
2022/02/28 09:53:26;;;;;;;16.13;9.05;;;;;;;7.14;47.72;102332.97;5022581;28;20424;-64
2022/02/28 09:56:26;;;;;;;16.33;7.97;;;;;;;6.91;47.72;102325.78;4982047;28;20053;-64
2022/02/28 09:59:19;;;;;;;14.07;8.18;;;;;;;6.89;47.23;102319.72;4999924;28;20590;-64
2022/02/28 10:02:00;;;;;;;15.80;8.43;;;;;;;7.05;47.67;102307.09;5028171;28;20053;-65
2022/02/28 10:04:28;;;;;;;16.17;8.77;;;;;;;6.75;46.77;102307.44;5011742;28;20519;-64
2022/02/28 10:06:59;;;;;;;15.43;8.68;;;;;;;6.80;47.51;102315.75;5024485;28;20058;-64
2022/02/28 10:09:27;;;;;;;;;;;;;;;7.16;47.49;102308.91;5030829;28;20057;-64
2022/02/28 10:11:54;;;;;;;16.60;9.30;;;;;;;6.93;46.75;102301.72;5021547;28;19921;-65
2022/02/28 10:14:22;;;;;;;18.10;9.50;;;;;;;7.17;46.76;102303.16;5014134;28;20516;-64
2022/02/28 10:16:57;;;;;;;19.73;9.57;;;;;;;7.22;47.83;102310.66;5010890;28;20417;-65
2022/02/28 10:19:26;;;;;;;16.02;9.05;;;;;;;7.18;48.08;102318.53;5022676;28;20404;-64
2022/02/28 10:21:58;;;;;;;14.45;8.68;;;;;;;7.01;48.42;102314.97;5008896;28;20054;-65
2022/02/28 10:24:25;;;;;;;20.08;8.95;;;;;;;7.26;47.64;102323.59;5014024;28;20528;-65
2022/02/28 10:27:15;;;;;;;18.33;9.00;;;;;;;7.50;47.08;102324.16;5013204;28;20428;-65
2022/02/28 10:30:01;;;;;;;15.68;8.65;;;;;;;7.53;46.03;102327.25;5030367;28;20393;-65
2022/02/28 10:32:48;;;;;;;16.52;8.80;;;;;;;7.71;45.61;102326.09;5012721;28;20389;-65
2022/02/28 10:38:56;;;;;;;19.83;8.82;;;;;;;8.24;48.44;102322.63;5008081;28;20548;-67
2022/02/28 10:41:36;;;;;;;17.73;8.88;;;;;;;8.50;46.65;102324.53;5015868;28;20054;-67
2022/02/28 10:44:05;;;;;;;16.08;8.60;;;;;;;8.50;44.43;102313.56;5018547;28;20048;-65
2022/02/28 10:46:36;;;;;;;;;;;;;;;8.23;44.57;102308.03;5016526;28;20049;-66
2022/02/28 10:49:04;;;;;;;;;;;;;;;8.27;44.35;102311.97;5016934;28;19921;-66
2022/02/28 10:51:48;;;;;;;21.80;9.00;;;;;;;8.27;44.35;102306.47;5016008;28;19921;-67
2022/02/28 10:54:22;;;;;;;26.55;10.55;;;;;;;8.35;43.97;102313.41;5014445;28;20050;-66
2022/02/28 10:57:03;;;;;;;21.92;9.77;;;;;;;8.40;43.97;102319.78;5015885;28;20042;-66
2022/02/28 10:59:38;;;;;;;24.15;9.60;;;;;;;8.55;43.60;102319.91;5013818;28;20068;-67
2022/02/28 11:02:06;;;;;;;27.25;9.60;;;;;;;8.42;44.19;102314.84;5014405;28;20050;-66
2022/02/28 11:04:40;;;;;;;20.27;9.35;;;;;;;8.51;43.05;102306.97;5027707;28;20048;-66
2022/02/28 11:07:11;;;;;;;21.70;9.40;;;;;;;8.44;43.20;102314.59;5016429;28;20054;-66
2022/02/28 11:09:42;;;;;;;18.55;9.48;;;;;;;8.66;42.94;102321.69;5017034;28;20046;-66
2022/02/28 11:12:37;;;;;;;14.30;8.60;;;;;;;8.73;42.42;102324.19;5012622;28;20378;-65
2022/02/28 11:15:07;;;;;;;23.63;8.77;;;;;;;8.77;42.24;102314.34;5018023;28;20046;-66
2022/02/28 11:17:37;;;;;;;17.83;9.73;;;;;;;8.96;41.37;102310.91;5036268;28;20053;-67
2022/02/28 11:20:08;;;;;;;17.15;8.82;;;;;;;8.79;41.83;102302.00;5019043;28;20386;-68
2022/02/28 11:22:37;;;;;;;20.00;9.93;;;;;;;8.61;42.68;102309.81;5021292;28;20121;-66
2022/02/28 11:25:09;;;;;;;19.60;8.93;;;;;;;8.80;42.44;102302.81;5017644;28;20038;-67
2022/02/28 11:27:38;;;;;;;17.70;9.18;;;;;;;9.23;45.65;102309.97;5014491;28;20072;-66
2022/02/28 11:30:07;;;;;;;20.67;10.10;;;;;;;9.21;41.41;102307.50;5016377;28;20050;-67
2022/02/28 11:32:36;;;;;;;18.80;9.15;;;;;;;8.75;41.70;102311.03;5020983;28;20073;-65
2022/02/28 11:35:37;;;;;;;21.73;11.07;;;;;;;9.15;41.53;102299.50;5016278;28;20050;-66
2022/02/28 11:38:27;;;;;;;22.60;11.30;;;;;;;9.39;40.35;102298.81;5007677;28;20061;-66
2022/02/28 11:41:04;;;;;;;17.73;9.35;;;;;;;9.11;39.73;102304.69;5003537;28;20065;-65
2022/02/28 11:43:32;;;;;;;15.20;9.00;;;;;;;9.13;40.37;102292.31;5017700;28;20057;-66